Time;durP1;ratioP1;P1;durP2;ratioP2;P2;SDS_P1;SDS_P2;PMS_P1;PMS_P2;Temp;Humidity;BMP_temperature;BMP_pressure;BME280_temperature;BME280_humidity;BME280_pressure;Samples;Min_cycle;Max_cycle;Signal;HPM_P1;HPM_P2
2024/02/03 00:00:11;;;;;;;9.82;7.00;;;;;8.60;99826.00;;;;5038958;28;20037;-62
2024/02/03 00:02:38;;;;;;;9.40;6.90;;;;;8.50;99823.00;;;;5036368;28;20494;-62
2024/02/03 00:05:05;;;;;;;9.80;6.90;;;;;8.50;99821.00;;;;5037339;28;20037;-63
2024/02/03 00:07:32;;;;;;;9.38;7.22;;;;;8.50;99820.00;;;;5039562;28;20051;-62
2024/02/03 00:09:58;;;;;;;9.80;7.40;;;;;8.50;99818.00;;;;5022120;28;20053;-63
2024/02/03 00:12:28;;;;;;;9.82;7.35;;;;;8.50;99824.00;;;;5042467;28;20041;-62
2024/02/03 00:14:56;;;;;;;11.77;7.93;;;;;8.50;99812.00;;;;5045215;28;20042;-62
2024/02/03 00:17:23;;;;;;;9.65;7.03;;;;;8.50;99823.00;;;;5045468;28;20053;-63
2024/02/03 00:19:53;;;;;;;9.88;7.40;;;;;8.50;99809.00;;;;5045839;28;20553;-62
2024/02/03 00:22:20;;;;;;;11.05;7.97;;;;;8.50;99810.00;;;;5045849;28;20069;-64
2024/02/03 00:24:48;;;;;;;11.02;8.05;;;;;8.50;99808.00;;;;5044362;28;20042;-64
2024/02/03 00:27:14;;;;;;;10.65;8.20;;;;;8.50;99806.00;;;;5041569;28;20073;-64
2024/02/03 00:29:41;;;;;;;10.52;7.65;;;;;8.50;99804.00;;;;5037085;28;20041;-63
2024/02/03 00:32:08;;;;;;;10.13;8.25;;;;;8.50;99793.00;;;;5038569;28;20101;-64
2024/02/03 00:34:35;;;;;;;11.57;8.13;;;;;8.40;99791.00;;;;5037176;28;20111;-64
2024/02/03 00:37:03;;;;;;;12.15;8.63;;;;;8.40;99795.00;;;;5037125;28;20069;-62
2024/02/03 00:39:30;;;;;;;12.75;8.90;;;;;8.50;99788.00;;;;5036408;28;20088;-63
2024/02/03 00:41:59;;;;;;;14.82;8.90;;;;;8.40;99793.00;;;;5036635;28;20539;-62
2024/02/03 00:44:26;;;;;;;11.93;8.80;;;;;8.40;99786.00;;;;5036965;28;20049;-62
2024/02/03 00:46:53;;;;;;;11.65;8.65;;;;;8.40;99799.00;;;;5036722;28;20038;-62
2024/02/03 00:49:20;;;;;;;11.88;8.88;;;;;8.50;99807.00;;;;5019845;28;20049;-62
2024/02/03 00:51:47;;;;;;;13.68;9.93;;;;;8.50;99818.00;;;;5036162;28;20076;-62
2024/02/03 00:54:13;;;;;;;11.20;8.57;;;;;8.50;99806.00;;;;5036776;28;20049;-62
2024/02/03 00:56:41;;;;;;;12.65;8.85;;;;;8.50;99797.00;;;;5036807;28;20102;-62
2024/02/03 00:59:07;;;;;;;14.07;9.48;;;;;8.50;99795.00;;;;5037272;28;20057;-62
2024/02/03 01:01:34;;;;;;;16.00;9.82;;;;;8.50;99794.00;;;;5036952;28;20037;-61
2024/02/03 01:04:01;;;;;;;11.38;8.90;;;;;8.50;99791.00;;;;5018740;28;20042;-62
2024/02/03 01:06:28;;;;;;;12.70;9.38;;;;;8.50;99790.00;;;;5035655;28;20453;-62
2024/02/03 01:08:55;;;;;;;12.50;9.13;;;;;8.40;99786.00;;;;5018418;28;20095;-62
2024/02/03 01:11:21;;;;;;;13.07;9.75;;;;;8.40;99792.00;;;;5035727;28;20049;-62
2024/02/03 01:13:48;;;;;;;13.15;10.15;;;;;8.40;99790.00;;;;5034226;28;20128;-62
2024/02/03 01:16:15;;;;;;;13.52;10.00;;;;;8.30;99802.00;;;;5036417;28;20044;-62
2024/02/03 01:18:43;;;;;;;13.88;10.45;;;;;8.40;99796.00;;;;5034832;28;20066;-62
2024/02/03 01:21:21;;;;;;;14.73;9.70;;;;;8.40;99787.00;;;;5034234;28;20042;-62
2024/02/03 01:23:48;;;;;;;15.55;10.07;;;;;8.30;99778.00;;;;5034342;28;20045;-64
2024/02/03 01:26:15;;;;;;;13.60;10.13;;;;;8.40;99786.00;;;;5034310;28;20048;-62
2024/02/03 01:28:41;;;;;;;16.27;10.65;;;;;8.40;99776.00;;;;5036497;28;20064;-62
2024/02/03 01:31:09;;;;;;;14.35;10.50;;;;;8.50;99783.00;;;;5034313;28;20045;-62
2024/02/03 01:33:35;;;;;;;13.85;10.82;;;;;8.40;99776.00;;;;5034419;28;20491;-62
2024/02/03 01:36:02;;;;;;;14.65;10.98;;;;;8.40;99764.00;;;;5035325;28;20041;-62
2024/02/03 01:38:29;;;;;;;17.08;10.80;;;;;8.40;99772.00;;;;5035456;28;20045;-62
2024/02/03 01:40:55;;;;;;;15.30;10.95;;;;;8.40;99773.00;;;;5035540;28;20101;-62
2024/02/03 01:43:22;;;;;;;16.40;10.75;;;;;8.40;99781.00;;;;5039555;28;20056;-65
2024/02/03 01:45:50;;;;;;;14.88;11.02;;;;;8.40;99782.00;;;;5055842;28;20051;-61
2024/02/03 01:48:17;;;;;;;14.77;11.02;;;;;8.50;99776.00;;;;5037297;28;20072;-62
2024/02/03 01:50:48;;;;;;;16.63;11.77;;;;;8.50;99782.00;;;;5036984;28;20044;-62
2024/02/03 01:53:17;;;;;;;17.60;11.43;;;;;8.50;99783.00;;;;5053535;28;20053;-62
2024/02/03 01:55:45;;;;;;;19.00;12.18;;;;;8.50;99771.00;;;;5054330;28;20512;-62
2024/02/03 01:58:11;;;;;;;15.02;11.30;;;;;8.40;99771.00;;;;5055039;28;20073;-62
2024/02/03 02:00:38;;;;;;;14.90;11.05;;;;;8.40;99775.00;;;;5054741;28;20055;-62
2024/02/03 02:03:05;;;;;;;15.77;11.18;;;;;8.50;99776.00;;;;5054632;28;20083;-64
2024/02/03 02:05:32;;;;;;;17.63;11.65;;;;;8.50;99761.00;;;;5054687;28;20037;-62
2024/02/03 02:07:58;;;;;;;16.30;11.35;;;;;8.50;99760.00;;;;5054728;28;20051;-62
2024/02/03 02:10:25;;;;;;;17.23;11.57;;;;;8.50;99770.00;;;;5054973;28;20104;-62
2024/02/03 02:12:52;;;;;;;17.88;11.80;;;;;8.50;99770.00;;;;5054524;28;20124;-63
2024/02/03 02:15:18;;;;;;;19.05;12.68;;;;;8.50;99775.00;;;;5036123;28;20045;-62
2024/02/03 02:17:45;;;;;;;16.40;12.10;;;;;8.60;99778.00;;;;5054559;28;20040;-61
2024/02/03 02:20:12;;;;;;;18.92;11.45;;;;;8.60;99787.00;;;;5053937;28;20037;-62
2024/02/03 02:22:39;;;;;;;18.00;11.23;;;;;8.50;99775.00;;;;5036609;28;20055;-63
2024/02/03 02:25:06;;;;;;;15.65;11.95;;;;;8.50;99786.00;;;;5052913;28;20063;-62
2024/02/03 02:27:32;;;;;;;17.33;11.05;;;;;8.50;99784.00;;;;5053667;28;20064;-63
2024/02/03 02:29:59;;;;;;;16.58;12.43;;;;;8.50;99766.00;;;;5052684;28;20068;-62
2024/02/03 02:32:26;;;;;;;19.70;12.23;;;;;8.60;99776.00;;;;5054237;28;20045;-64
2024/02/03 02:34:52;;;;;;;18.98;11.60;;;;;8.50;99770.00;;;;5052359;28;20047;-62
2024/02/03 02:37:19;;;;;;;17.65;12.05;;;;;8.50;99776.00;;;;5053401;28;20132;-62
2024/02/03 02:39:46;;;;;;;17.98;11.77;;;;;8.50;99757.00;;;;5054389;28;20132;-62
2024/02/03 02:42:13;;;;;;;18.42;13.13;;;;;8.40;99759.00;;;;5053975;28;20041;-64
2024/02/03 02:44:40;;;;;;;17.25;11.85;;;;;8.40;99761.00;;;;5050619;28;20040;-63
2024/02/03 02:47:07;;;;;;;16.67;12.85;;;;;8.40;99754.00;;;;5051064;28;20037;-63
2024/02/03 02:49:33;;;;;;;17.02;12.45;;;;;8.40;99762.00;;;;5051308;28;20090;-62
2024/02/03 02:52:00;;;;;;;16.65;12.57;;;;;8.40;99745.00;;;;5052588;28;20067;-63
2024/02/03 02:54:27;;;;;;;18.52;12.93;;;;;8.40;99753.00;;;;5051625;28;20045;-62
2024/02/03 02:56:54;;;;;;;16.38;12.32;;;;;8.50;99756.00;;;;5051027;28;20099;-62
2024/02/03 02:59:21;;;;;;;17.13;12.95;;;;;8.50;99754.00;;;;5052970;28;20461;-63
2024/02/03 03:01:48;;;;;;;16.27;12.90;;;;;8.60;99766.00;;;;5052181;28;20557;-62
2024/02/03 03:04:14;;;;;;;17.17;12.38;;;;;8.50;99770.00;;;;5051450;28;20508;-61
2024/02/03 03:06:41;;;;;;;19.13;11.35;;;;;8.50;99760.00;;;;5052110;28;20076;-61
2024/02/03 03:09:08;;;;;;;18.10;12.55;;;;;8.50;99769.00;;;;5052189;28;20049;-62
2024/02/03 03:11:36;;;;;;;15.13;11.30;;;;;8.40;99762.00;;;;5052026;28;20044;-62
2024/02/03 03:14:05;;;;;;;18.75;11.55;;;;;8.50;99763.00;;;;5051535;28;20045;-62
2024/02/03 03:16:32;;;;;;;17.70;11.65;;;;;8.50;99766.00;;;;5051989;28;20128;-62
2024/02/03 03:18:59;;;;;;;14.38;11.05;;;;;8.50;99774.00;;;;5052111;28;20045;-62
2024/02/03 03:21:25;;;;;;;13.50;10.07;;;;;8.50;99771.00;;;;5051774;28;20044;-62
2024/02/03 03:23:52;;;;;;;14.73;10.43;;;;;8.50;99778.00;;;;5051252;28;20041;-62
2024/02/03 03:26:19;;;;;;;13.52;10.60;;;;;8.40;99777.00;;;;5050700;28;20048;-62
2024/02/03 03:28:45;;;;;;;12.70;10.05;;;;;8.40;99776.00;;;;5051696;28;20120;-62
2024/02/03 03:31:12;;;;;;;13.07;10.77;;;;;8.50;99781.00;;;;5050777;28;20048;-62
2024/02/03 03:33:38;;;;;;;13.25;9.80;;;;;8.50;99771.00;;;;5051426;28;20096;-62
2024/02/03 03:36:05;;;;;;;13.70;9.23;;;;;8.60;99783.00;;;;5051911;28;20044;-62
2024/02/03 03:38:34;;;;;;;12.88;9.43;;;;;8.50;99785.00;;;;5052025;28;20053;-62
2024/02/03 03:41:00;;;;;;;11.80;8.45;;;;;8.40;99766.00;;;;5051883;28;20051;-62
2024/02/03 03:43:27;;;;;;;10.85;7.97;;;;;8.40;99769.00;;;;5051071;28;20606;-62
2024/02/03 03:45:53;;;;;;;11.05;7.85;;;;;8.50;99776.00;;;;5051798;28;20045;-63
2024/02/03 03:48:20;;;;;;;10.20;7.70;;;;;8.40;99775.00;;;;5055010;28;20041;-63
2024/02/03 03:50:48;;;;;;;8.70;7.28;;;;;8.50;99782.00;;;;5055742;28;20049;-64
2024/02/03 03:53:14;;;;;;;8.80;6.82;;;;;8.50;99778.00;;;;5055646;28;20650;-64
2024/02/03 03:55:41;;;;;;;11.13;7.80;;;;;8.50;99788.00;;;;5055023;28;20047;-63
2024/02/03 03:58:08;;;;;;;8.65;6.72;;;;;8.50;99791.00;;;;5055252;28;20071;-62
2024/02/03 04:00:34;;;;;;;6.05;5.22;;;;;8.60;99785.00;;;;5055423;28;20041;-62
2024/02/03 04:03:02;;;;;;;6.97;5.45;;;;;8.60;99797.00;;;;5055572;28;20067;-63
2024/02/03 04:05:29;;;;;;;5.38;4.47;;;;;8.50;99790.00;;;;5053341;28;20052;-62
2024/02/03 04:07:55;;;;;;;8.57;5.47;;;;;8.50;99796.00;;;;5055340;28;20053;-62
2024/02/03 04:10:22;;;;;;;7.10;4.82;;;;;8.50;99786.00;;;;5054145;28;20041;-61
2024/02/03 04:12:48;;;;;;;7.78;4.70;;;;;8.50;99780.00;;;;5054083;28;20107;-62
2024/02/03 04:15:15;;;;;;;7.25;4.72;;;;;8.50;99796.00;;;;5053378;28;20100;-62
2024/02/03 04:17:42;;;;;;;5.95;4.72;;;;;8.50;99791.00;;;;5055240;28;20048;-62
2024/02/03 04:20:09;;;;;;;5.47;4.07;;;;;8.60;99792.00;;;;5055222;28;20521;-62
2024/02/03 04:22:35;;;;;;;6.13;3.75;;;;;8.50;99794.00;;;;5055025;28;20060;-62
2024/02/03 04:25:02;;;;;;;3.80;3.40;;;;;8.50;99788.00;;;;5053196;28;20080;-63
2024/02/03 04:27:29;;;;;;;4.72;3.47;;;;;8.40;99783.00;;;;5054860;28;20462;-63
2024/02/03 04:29:55;;;;;;;4.70;3.60;;;;;8.40;99794.00;;;;5054823;28;20124;-63
2024/02/03 04:32:22;;;;;;;4.47;3.78;;;;;8.40;99782.00;;;;5055093;28;20112;-63
2024/02/03 04:34:49;;;;;;;4.88;3.72;;;;;8.40;99791.00;;;;5054270;28;20047;-63
2024/02/03 04:37:15;;;;;;;3.90;3.50;;;;;8.40;99781.00;;;;5054801;28;20124;-63
2024/02/03 04:39:42;;;;;;;4.05;3.38;;;;;8.50;99788.00;;;;5054639;28;20041;-63
2024/02/03 04:42:09;;;;;;;3.60;3.30;;;;;8.60;99783.00;;;;5054430;28;20099;-62
2024/02/03 04:44:35;;;;;;;4.13;3.03;;;;;8.50;99781.00;;;;5053973;28;20041;-62
2024/02/03 04:47:03;;;;;;;3.33;3.03;;;;;8.50;99782.00;;;;5054724;28;20438;-63
2024/02/03 04:49:30;;;;;;;5.15;3.03;;;;;8.50;99775.00;;;;5053250;28;20049;-63
2024/02/03 04:51:56;;;;;;;3.50;3.00;;;;;8.50;99771.00;;;;5054662;28;20045;-63
2024/02/03 04:54:23;;;;;;;4.95;3.10;;;;;8.60;99765.00;;;;5054046;28;20437;-63
2024/02/03 04:56:50;;;;;;;2.70;2.50;;;;;8.50;99762.00;;;;5053045;28;20041;-63
2024/02/03 04:59:16;;;;;;;3.88;2.97;;;;;8.60;99759.00;;;;5053260;28;20073;-63
2024/02/03 05:01:43;;;;;;;2.92;2.40;;;;;8.60;99757.00;;;;5054421;28;20037;-63
2024/02/03 05:04:10;;;;;;;2.75;2.42;;;;;8.60;99749.00;;;;5053920;28;20048;-61
2024/02/03 05:06:37;;;;;;;2.75;2.50;;;;;8.60;99745.00;;;;5054297;28;20041;-62
2024/02/03 05:09:04;;;;;;;2.63;2.38;;;;;8.60;99752.00;;;;5054223;28;20045;-62
2024/02/03 05:11:31;;;;;;;2.60;2.33;;;;;8.60;99744.00;;;;5054202;28;20041;-62
2024/02/03 05:13:58;;;;;;;2.95;2.58;;;;;8.60;99741.00;;;;5053643;28;20055;-62
2024/02/03 05:16:26;;;;;;;2.90;2.30;;;;;8.60;99743.00;;;;5054131;28;20076;-62
2024/02/03 05:18:53;;;;;;;2.33;2.13;;;;;8.60;99749.00;;;;5054428;28;20127;-62
2024/02/03 05:21:20;;;;;;;2.97;2.30;;;;;8.60;99746.00;;;;5054013;28;20037;-63
2024/02/03 05:23:46;;;;;;;2.20;2.00;;;;;8.60;99743.00;;;;5053597;28;20045;-63
2024/02/03 05:26:13;;;;;;;3.53;2.20;;;;;8.60;99753.00;;;;5054044;28;20473;-63
2024/02/03 05:28:40;;;;;;;2.10;1.90;;;;;8.60;99753.00;;;;5052934;28;20517;-63
2024/02/03 05:31:06;;;;;;;2.00;1.90;;;;;8.60;99743.00;;;;5053768;28;20487;-63
2024/02/03 05:33:34;;;;;;;3.35;1.88;;;;;8.70;99751.00;;;;5053225;28;20045;-63
2024/02/03 05:36:01;;;;;;;2.00;1.80;;;;;8.60;99752.00;;;;5053603;28;20048;-63
2024/02/03 05:38:28;;;;;;;2.47;1.90;;;;;8.60;99750.00;;;;5053891;28;20051;-62
2024/02/03 05:40:54;;;;;;;2.67;2.03;;;;;8.60;99743.00;;;;5053588;28;20068;-62
2024/02/03 05:43:21;;;;;;;2.35;2.03;;;;;8.70;99744.00;;;;5053364;28;20139;-63
2024/02/03 05:45:48;;;;;;;2.10;1.90;;;;;8.70;99742.00;;;;5053406;28;20045;-62
2024/02/03 05:48:14;;;;;;;2.92;2.10;;;;;8.70;99743.00;;;;5053688;28;20041;-62
2024/02/03 05:50:41;;;;;;;2.20;2.00;;;;;8.70;99746.00;;;;5052534;28;20063;-62
2024/02/03 05:53:08;;;;;;;2.47;2.10;;;;;8.70;99746.00;;;;5053569;28;20037;-62
2024/02/03 05:55:34;;;;;;;1.80;1.70;;;;;8.70;99744.00;;;;5053384;28;20440;-62
2024/02/03 05:58:01;;;;;;;2.08;1.73;;;;;8.70;99745.00;;;;5053469;28;20117;-63
2024/02/03 06:00:28;;;;;;;2.25;2.05;;;;;8.70;99747.00;;;;5052048;28;20052;-64
2024/02/03 06:02:56;;;;;;;3.90;1.80;;;;;8.70;99745.00;;;;5052117;28;20041;-63
2024/02/03 06:05:23;;;;;;;1.67;1.58;;;;;8.70;99727.00;;;;5052966;28;20048;-63
2024/02/03 06:07:49;;;;;;;2.13;1.70;;;;;8.60;99727.00;;;;5053727;28;20053;-63
2024/02/03 06:10:16;;;;;;;2.35;1.88;;;;;8.60;99723.00;;;;5053178;28;20387;-63
2024/02/03 06:12:43;;;;;;;1.90;1.70;;;;;8.70;99730.00;;;;5053043;28;20466;-64
2024/02/03 06:15:10;;;;;;;2.00;1.88;;;;;8.70;99724.00;;;;5052455;28;20032;-62
2024/02/03 06:17:37;;;;;;;2.15;1.85;;;;;8.70;99718.00;;;;5052718;28;20068;-63
2024/02/03 06:20:04;;;;;;;2.95;1.83;;;;;8.70;99723.00;;;;5051761;28;20053;-63
2024/02/03 06:22:32;;;;;;;1.85;1.45;;;;;8.70;99720.00;;;;5052784;28;20045;-64
2024/02/03 06:24:58;;;;;;;3.28;1.77;;;;;8.80;99731.00;;;;5052177;28;20051;-60
2024/02/03 06:27:25;;;;;;;2.42;1.83;;;;;8.80;99726.00;;;;5051340;28;20045;-62
2024/02/03 06:29:51;;;;;;;2.92;1.70;;;;;8.80;99728.00;;;;5052612;28;20044;-64
2024/02/03 06:32:18;;;;;;;1.80;1.65;;;;;8.80;99738.00;;;;5052692;28;20057;-64
2024/02/03 06:34:45;;;;;;;1.73;1.63;;;;;8.70;99745.00;;;;5052008;28;20072;-63
2024/02/03 06:37:12;;;;;;;2.70;1.63;;;;;8.70;99739.00;;;;5034688;28;20137;-64
2024/02/03 06:39:38;;;;;;;1.98;1.77;;;;;8.80;99744.00;;;;5052505;28;20390;-64
2024/02/03 06:42:05;;;;;;;1.75;1.65;;;;;8.80;99748.00;;;;5052421;28;20048;-63
2024/02/03 06:44:32;;;;;;;1.50;1.40;;;;;8.80;99745.00;;;;5051905;28;20041;-64
2024/02/03 06:46:58;;;;;;;2.03;1.77;;;;;8.90;99751.00;;;;5052889;28;20068;-63
2024/02/03 06:49:25;;;;;;;2.08;1.88;;;;;8.90;99753.00;;;;5051322;28;20045;-64
2024/02/03 06:51:52;;;;;;;2.83;2.00;;;;;8.90;99752.00;;;;5052382;28;20040;-64
2024/02/03 06:54:18;;;;;;;2.08;1.88;;;;;8.90;99764.00;;;;5051676;28;20494;-63
2024/02/03 06:56:45;;;;;;;3.38;1.77;;;;;9.00;99759.00;;;;5050796;28;20045;-63
2024/02/03 06:59:12;;;;;;;1.92;1.80;;;;;9.10;99754.00;;;;5052216;28;20047;-62
2024/02/03 07:01:39;;;;;;;2.42;1.70;;;;;9.00;99766.00;;;;5052214;28;20045;-63
2024/02/03 07:04:06;;;;;;;2.20;1.90;;;;;9.00;99762.00;;;;5051586;28;20041;-63
2024/02/03 07:06:32;;;;;;;2.45;1.90;;;;;9.00;99749.00;;;;5052010;28;20402;-63
2024/02/03 07:08:59;;;;;;;3.22;2.55;;;;;9.00;99755.00;;;;5052029;28;20469;-63
2024/02/03 07:11:26;;;;;;;4.82;3.47;;;;;9.00;99754.00;;;;5051825;28;20064;-65
2024/02/03 07:13:52;;;;;;;2.88;1.67;;;;;8.90;99760.00;;;;5053549;28;20056;-63
2024/02/03 07:16:19;;;;;;;2.90;1.90;;;;;8.90;99756.00;;;;5053340;28;20048;-63
2024/02/03 07:18:45;;;;;;;1.65;1.55;;;;;8.90;99759.00;;;;5052224;28;20115;-61
2024/02/03 07:21:12;;;;;;;2.00;1.75;;;;;8.90;99760.00;;;;5053077;28;20092;-64
2024/02/03 07:23:38;;;;;;;2.00;1.75;;;;;8.90;99762.00;;;;5056842;28;20078;-63
2024/02/03 07:26:05;;;;;;;2.25;1.70;;;;;9.00;99761.00;;;;5056095;28;20049;-62
2024/02/03 07:28:31;;;;;;;1.83;1.73;;;;;8.90;99765.00;;;;5057239;28;20061;-62
2024/02/03 07:30:58;;;;;;;2.75;2.53;;;;;9.00;99759.00;;;;5057335;28;20041;-62
2024/02/03 07:33:25;;;;;;;1.80;1.70;;;;;9.00;99758.00;;;;5057821;28;20509;-62
2024/02/03 07:35:52;;;;;;;1.90;1.67;;;;;9.00;99770.00;;;;5057917;28;20040;-63
2024/02/03 07:38:18;;;;;;;2.25;2.05;;;;;8.90;99763.00;;;;5056692;28;20044;-64
2024/02/03 07:40:45;;;;;;;3.17;1.90;;;;;8.90;99773.00;;;;5057607;28;20131;-63
2024/02/03 07:43:12;;;;;;;2.22;2.03;;;;;8.90;99766.00;;;;5056869;28;20494;-62
2024/02/03 07:45:38;;;;;;;2.10;1.90;;;;;9.00;99769.00;;;;5055570;28;20049;-61
2024/02/03 07:48:05;;;;;;;3.15;2.05;;;;;9.00;99775.00;;;;5056236;28;20106;-61
2024/02/03 07:50:32;;;;;;;3.22;2.30;;;;;9.00;99761.00;;;;5054677;28;20045;-62
2024/02/03 07:52:58;;;;;;;2.92;2.50;;;;;9.00;99762.00;;;;5054561;28;20049;-61
2024/02/03 07:55:25;;;;;;;4.80;1.95;;;;;9.00;99766.00;;;;5055157;28;20057;-62
2024/02/03 07:57:51;;;;;;;2.70;2.00;;;;;8.90;99767.00;;;;5055639;28;20044;-62
2024/02/03 08:00:19;;;;;;;2.33;2.05;;;;;9.00;99770.00;;;;5055813;28;20045;-61
2024/02/03 08:02:46;;;;;;;2.38;2.03;;;;;9.00;99775.00;;;;5055920;28;20064;-61
2024/02/03 08:05:12;;;;;;;2.33;1.83;;;;;9.10;99773.00;;;;5055233;28;20064;-62
2024/02/03 08:07:40;;;;;;;2.13;1.92;;;;;9.10;99772.00;;;;5054669;28;20048;-61
2024/02/03 08:10:07;;;;;;;2.03;1.70;;;;;9.10;99778.00;;;;5055309;28;20052;-61
2024/02/03 08:12:34;;;;;;;1.95;1.75;;;;;9.10;99783.00;;;;5055684;28;20045;-61
2024/02/03 08:15:00;;;;;;;1.98;1.77;;;;;9.00;99772.00;;;;5055043;28;20056;-62
2024/02/03 08:17:27;;;;;;;2.67;2.17;;;;;9.10;99775.00;;;;5055488;28;20051;-62
2024/02/03 08:19:53;;;;;;;2.17;1.98;;;;;9.20;99767.00;;;;5037565;28;20049;-61
2024/02/03 08:22:20;;;;;;;2.55;2.00;;;;;9.20;99777.00;;;;5055441;28;20110;-61
2024/02/03 08:24:47;;;;;;;3.35;2.75;;;;;9.20;99773.00;;;;5054520;28;20428;-62
2024/02/03 08:27:13;;;;;;;3.13;2.13;;;;;9.20;99773.00;;;;5054972;28;20095;-61
2024/02/03 08:29:40;;;;;;;2.95;2.08;;;;;9.10;99765.00;;;;5054882;28;20045;-61
2024/02/03 08:32:07;;;;;;;5.40;2.67;;;;;9.20;99760.00;;;;5054966;28;20552;-65
2024/02/03 08:34:33;;;;;;;4.18;2.13;;;;;9.20;99750.00;;;;5054114;28;20049;-61
2024/02/03 08:37:00;;;;;;;3.08;2.33;;;;;9.30;99749.00;;;;5053891;28;20067;-61
2024/02/03 08:39:27;;;;;;;3.10;2.28;;;;;9.30;99740.00;;;;5055016;28;20559;-64
2024/02/03 08:41:56;;;;;;;1.13;1.02;;;;;9.10;99736.00;;;;5054742;28;20045;-61
2024/02/03 08:44:23;;;;;;;1.70;1.52;;;;;9.10;99736.00;;;;5054153;28;20124;-61
2024/02/03 08:46:50;;;;;;;1.40;1.30;;;;;9.10;99746.00;;;;5054681;28;20045;-62
2024/02/03 08:49:16;;;;;;;1.27;1.17;;;;;9.20;99733.00;;;;5053742;28;20074;-60
2024/02/03 08:51:43;;;;;;;1.55;1.20;;;;;9.30;99730.00;;;;5037021;28;20186;-61
2024/02/03 08:54:10;;;;;;;1.70;1.60;;;;;9.30;99740.00;;;;5053883;28;20134;-62
2024/02/03 08:56:37;;;;;;;1.30;1.20;;;;;9.40;99742.00;;;;5054147;28;20044;-61
2024/02/03 08:59:04;;;;;;;1.85;1.67;;;;;9.40;99734.00;;;;5053639;28;20076;-65
2024/02/03 09:01:30;;;;;;;1.20;1.00;;;;;9.30;99735.00;;;;5053153;28;20045;-62
2024/02/03 09:03:57;;;;;;;1.20;1.05;;;;;9.30;99732.00;;;;5053754;28;20037;-61
2024/02/03 09:06:24;;;;;;;1.20;1.10;;;;;9.30;99738.00;;;;5053079;28;20049;-63
2024/02/03 09:08:51;;;;;;;1.45;1.35;;;;;9.40;99737.00;;;;5053427;28;20072;-61
2024/02/03 09:11:18;;;;;;;2.00;1.50;;;;;9.40;99732.00;;;;5054148;28;20044;-61
2024/02/03 09:13:45;;;;;;;1.25;0.98;;;;;9.50;99733.00;;;;5054076;28;20056;-62
2024/02/03 09:16:11;;;;;;;1.45;1.35;;;;;9.40;99746.00;;;;5054797;28;20052;-62
2024/02/03 09:18:38;;;;;;;1.17;1.08;;;;;9.40;99742.00;;;;5054609;28;20036;-62
2024/02/03 09:21:09;;;;;;;1.83;1.63;;;;;9.50;99745.00;;;;5054358;28;20052;-62
2024/02/03 09:23:38;;;;;;;1.33;1.20;;;;;9.50;99749.00;;;;5053835;28;20383;-62
2024/02/03 09:26:05;;;;;;;1.70;1.33;;;;;9.40;99742.00;;;;5036958;28;20053;-65
2024/02/03 09:28:31;;;;;;;1.55;1.45;;;;;9.40;99752.00;;;;5054176;28;20091;-61
2024/02/03 09:30:59;;;;;;;1.25;1.15;;;;;9.40;99755.00;;;;5054174;28;20045;-62
2024/02/03 09:33:25;;;;;;;1.20;1.02;;;;;9.40;99753.00;;;;5053561;28;20041;-62
2024/02/03 09:35:52;;;;;;;1.30;1.20;;;;;9.40;99750.00;;;;5054288;28;20451;-63
2024/02/03 09:38:19;;;;;;;1.58;1.38;;;;;9.40;99752.00;;;;5054043;28;20532;-63
2024/02/03 09:40:46;;;;;;;2.58;2.22;;;;;9.50;99755.00;;;;5052542;28;20045;-61
2024/02/03 09:43:13;;;;;;;1.73;1.63;;;;;9.50;99752.00;;;;5036443;28;20535;-61
2024/02/03 09:45:40;;;;;;;1.95;1.75;;;;;9.50;99758.00;;;;5052308;28;20075;-63
2024/02/03 09:48:07;;;;;;;2.90;2.17;;;;;9.60;99761.00;;;;5052579;28;20045;-63
2024/02/03 09:50:34;;;;;;;1.25;1.15;;;;;9.60;99753.00;;;;5052358;28;20474;-62
2024/02/03 09:53:01;;;;;;;1.88;1.63;;;;;9.60;99746.00;;;;5053549;28;20494;-64
2024/02/03 09:55:28;;;;;;;2.08;1.77;;;;;9.60;99747.00;;;;5052967;28;20079;-63
2024/02/03 09:57:54;;;;;;;2.95;1.92;;;;;9.70;99752.00;;;;5052323;28;20139;-63
2024/02/03 10:00:24;;;;;;;1.58;1.48;;;;;9.70;99757.00;;;;5053886;28;20051;-63
2024/02/03 10:02:50;;;;;;;2.40;1.95;;;;;9.70;99760.00;;;;5053789;28;20045;-62
2024/02/03 10:05:28;;;;;;;1.77;1.60;;;;;9.80;99764.00;;;;5053004;28;20041;-63
2024/02/03 10:08:03;;;;;;;2.47;1.77;;;;;9.80;99763.00;;;;5053788;28;20047;-63
2024/02/03 10:10:30;;;;;;;2.50;2.30;;;;;9.90;99764.00;;;;5053674;28;20465;-63
2024/02/03 10:13:08;;;;;;;2.33;1.77;;;;;9.90;99760.00;;;;5052505;28;20183;-63
2024/02/03 10:15:36;;;;;;;2.33;2.03;;;;;9.90;99763.00;;;;5052664;28;20091;-63
2024/02/03 10:18:08;;;;;;;2.63;2.42;;;;;10.00;99770.00;;;;5052091;28;20493;-63
2024/02/03 10:20:35;;;;;;;2.25;1.98;;;;;10.00;99770.00;;;;5053242;28;20055;-64
2024/02/03 10:23:02;;;;;;;1.80;1.70;;;;;10.00;99776.00;;;;5053347;28;20045;-61
2024/02/03 10:25:31;;;;;;;3.20;2.30;;;;;10.00;99772.00;;;;5052428;28;20383;-62
2024/02/03 10:28:08;;;;;;;2.50;2.10;;;;;10.00;99772.00;;;;5053307;28;20037;-62
2024/02/03 10:30:36;;;;;;;1.83;1.73;;;;;10.00;99777.00;;;;5053608;28;20546;-62
2024/02/03 10:33:05;;;;;;;2.25;1.90;;;;;9.90;99768.00;;;;5053320;28;20049;-62
2024/02/03 10:35:35;;;;;;;2.63;2.42;;;;;10.00;99774.00;;;;5052714;28;20139;-61
2024/02/03 10:38:02;;;;;;;2.45;2.25;;;;;10.20;99769.00;;;;5051753;28;20500;-62
2024/02/03 10:40:33;;;;;;;2.30;2.05;;;;;10.30;99773.00;;;;5053153;28;20051;-62
2024/02/03 10:43:01;;;;;;;2.78;1.75;;;;;10.20;99767.00;;;;5052074;28;20437;-63
2024/02/03 10:45:31;;;;;;;2.55;2.30;;;;;10.20;99763.00;;;;5052661;28;20095;-62
2024/02/03 10:48:01;;;;;;;2.92;1.95;;;;;10.30;99748.00;;;;5052876;28;20059;-62
2024/02/03 10:50:31;;;;;;;2.00;1.70;;;;;10.40;99746.00;;;;5052491;28;20131;-64
2024/02/03 10:53:04;;;;;;;1.90;1.80;;;;;10.50;99752.00;;;;5052758;28;20049;-63
2024/02/03 10:55:34;;;;;;;1.85;1.75;;;;;10.30;99754.00;;;;5051793;28;20044;-64
2024/02/03 10:58:03;;;;;;;1.88;1.65;;;;;10.40;99767.00;;;;5052258;28;20441;-64
2024/02/03 11:00:29;;;;;;;4.00;1.75;;;;;10.40;99760.00;;;;5052414;28;20057;-64
2024/02/03 11:03:00;;;;;;;2.13;1.92;;;;;10.50;99753.00;;;;5050931;28;20045;-64
2024/02/03 11:05:28;;;;;;;2.38;2.15;;;;;10.50;99752.00;;;;5050358;28;20103;-64
2024/02/03 11:08:03;;;;;;;2.15;1.80;;;;;10.40;99752.00;;;;5051114;28;20045;-63
2024/02/03 11:10:30;;;;;;;2.15;1.58;;;;;10.40;99754.00;;;;5052346;28;20037;-64
2024/02/03 11:13:17;;;;;;;2.08;1.90;;;;;10.50;99744.00;;;;5052538;28;20418;-63
2024/02/03 11:15:44;;;;;;;1.92;1.70;;;;;10.50;99742.00;;;;5034481;28;20079;-64
2024/02/03 11:18:14;;;;;;;3.20;1.95;;;;;10.50;99745.00;;;;5052717;28;20130;-63
2024/02/03 11:20:42;;;;;;;1.73;1.60;;;;;10.50;99742.00;;;;5052634;28;20049;-64
2024/02/03 11:23:13;;;;;;;2.40;2.00;;;;;10.50;99742.00;;;;5050960;28;20102;-64
2024/02/03 11:25:45;;;;;;;1.73;1.58;;;;;10.50;99737.00;;;;5033795;28;20053;-64
2024/02/03 11:28:12;;;;;;;3.17;1.70;;;;;10.50;99737.00;;;;5052598;28;20041;-64
2024/02/03 11:30:39;;;;;;;1.98;1.75;;;;;10.50;99746.00;;;;5052185;28;20072;-65
2024/02/03 11:33:06;;;;;;;2.15;1.60;;;;;10.50;99741.00;;;;5052032;28;20049;-64
2024/02/03 11:35:34;;;;;;;8.80;4.95;;;;;10.40;99741.00;;;;5051694;28;20048;-65
2024/02/03 11:38:08;;;;;;;2.25;1.75;;;;;10.50;99741.00;;;;5050794;28;20490;-63
2024/02/03 11:40:44;;;;;;;4.72;1.83;;;;;10.50;99731.00;;;;5052141;28;20044;-61
2024/02/03 11:43:13;;;;;;;1.70;1.58;;;;;10.50;99736.00;;;;5051921;28;20566;-62
2024/02/03 11:45:46;;;;;;;2.20;1.52;;;;;10.50;99728.00;;;;5051629;28;20410;-64
2024/02/03 11:48:13;;;;;;;1.20;1.10;;;;;10.40;99734.00;;;;5052394;28;20037;-63
2024/02/03 11:50:40;;;;;;;5.38;1.52;;;;;10.40;99733.00;;;;5051949;28;20048;-63
2024/02/03 11:53:07;;;;;;;1.55;1.45;;;;;10.50;99728.00;;;;5051936;28;20072;-65
2024/02/03 11:55:34;;;;;;;2.35;1.42;;;;;10.50;99722.00;;;;5051405;28;20103;-62
2024/02/03 11:58:01;;;;;;;2.92;1.50;;;;;10.60;99716.00;;;;5051805;28;20045;-63
2024/02/03 12:00:27;;;;;;;1.77;1.40;;;;;10.60;99715.00;;;;5050668;28;20043;-62
2024/02/03 12:02:54;;;;;;;3.53;1.92;;;;;10.70;99716.00;;;;5052043;28;20052;-62
2024/02/03 12:05:21;;;;;;;2.17;1.40;;;;;10.60;99716.00;;;;5033539;28;20505;-64
2024/02/03 12:07:48;;;;;;;1.42;1.33;;;;;10.60;99715.00;;;;5052618;28;20053;-63
2024/02/03 12:10:15;;;;;;;2.80;1.40;;;;;10.60;99708.00;;;;5054463;28;20080;-63
2024/02/03 12:12:41;;;;;;;3.33;2.88;;;;;10.70;99710.00;;;;5055406;28;20049;-62
2024/02/03 12:15:10;;;;;;;2.22;1.63;;;;;10.60;99708.00;;;;5054960;28;20458;-61
2024/02/03 12:17:38;;;;;;;1.20;1.13;;;;;10.60;99711.00;;;;5053920;28;20052;-60
2024/02/03 12:20:23;;;;;;;1.75;1.50;;;;;10.70;99713.00;;;;5055047;28;20124;-61